sensor_id;sensor_type;location;lat;lon;timestamp;P1;durP1;ratioP1;P2;durP2;ratioP2
76536;SDS011;65381;51.254;15.592;2023-11-19T00:01:08;8.48;;;1.05;;
76536;SDS011;65381;51.254;15.592;2023-11-19T00:03:56;5.15;;;0.68;;
76536;SDS011;65381;51.254;15.592;2023-11-19T00:06:25;2.85;;;0.47;;
76536;SDS011;65381;51.254;15.592;2023-11-19T00:08:54;3.88;;;0.55;;
76536;SDS011;65381;51.254;15.592;2023-11-19T00:11:22;6.30;;;3.13;;
76536;SDS011;65381;51.254;15.592;2023-11-19T00:13:50;3.10;;;0.40;;
76536;SDS011;65381;51.254;15.592;2023-11-19T00:16:18;1.52;;;0.15;;
76536;SDS011;65381;51.254;15.592;2023-11-19T00:18:46;2.53;;;0.38;;
76536;SDS011;65381;51.254;15.592;2023-11-19T00:21:14;3.97;;;0.55;;
76536;SDS011;65381;51.254;15.592;2023-11-19T00:23:42;3.75;;;0.57;;
76536;SDS011;65381;51.254;15.592;2023-11-19T00:26:11;2.70;;;0.32;;
76536;SDS011;65381;51.254;15.592;2023-11-19T00:28:45;3.85;;;0.50;;
76536;SDS011;65381;51.254;15.592;2023-11-19T00:31:15;2.75;;;0.38;;
76536;SDS011;65381;51.254;15.592;2023-11-19T00:33:43;3.78;;;0.47;;
76536;SDS011;65381;51.254;15.592;2023-11-19T00:36:17;2.40;;;0.30;;
76536;SDS011;65381;51.254;15.592;2023-11-19T00:38:45;5.70;;;0.80;;
76536;SDS011;65381;51.254;15.592;2023-11-19T00:41:14;4.03;;;0.47;;
76536;SDS011;65381;51.254;15.592;2023-11-19T00:43:44;2.90;;;0.25;;
76536;SDS011;65381;51.254;15.592;2023-11-19T00:46:12;4.55;;;0.52;;
76536;SDS011;65381;51.254;15.592;2023-11-19T00:48:40;3.67;;;0.50;;
76536;SDS011;65381;51.254;15.592;2023-11-19T00:51:11;1.55;;;0.20;;
76536;SDS011;65381;51.254;15.592;2023-11-19T00:53:39;3.08;;;0.47;;
76536;SDS011;65381;51.254;15.592;2023-11-19T00:56:07;3.20;;;0.47;;
76536;SDS011;65381;51.254;15.592;2023-11-19T00:58:39;3.10;;;0.50;;
76536;SDS011;65381;51.254;15.592;2023-11-19T01:01:07;4.57;;;0.70;;
76536;SDS011;65381;51.254;15.592;2023-11-19T01:03:35;4.18;;;0.60;;
76536;SDS011;65381;51.254;15.592;2023-11-19T01:06:05;2.03;;;0.30;;
76536;SDS011;65381;51.254;15.592;2023-11-19T01:08:33;2.00;;;0.25;;
76536;SDS011;65381;51.254;15.592;2023-11-19T01:11:04;5.88;;;0.80;;
76536;SDS011;65381;51.254;15.592;2023-11-19T01:13:32;3.30;;;0.43;;
76536;SDS011;65381;51.254;15.592;2023-11-19T01:16:01;3.25;;;0.43;;
76536;SDS011;65381;51.254;15.592;2023-11-19T01:18:29;3.95;;;0.60;;
76536;SDS011;65381;51.254;15.592;2023-11-19T01:20:59;3.42;;;0.45;;
76536;SDS011;65381;51.254;15.592;2023-11-19T01:23:28;3.40;;;0.40;;
76536;SDS011;65381;51.254;15.592;2023-11-19T01:25:56;1.80;;;0.20;;
76536;SDS011;65381;51.254;15.592;2023-11-19T01:28:23;0.35;;;0.10;;
76536;SDS011;65381;51.254;15.592;2023-11-19T01:30:52;5.88;;;0.60;;
76536;SDS011;65381;51.254;15.592;2023-11-19T01:33:21;4.60;;;0.63;;
76536;SDS011;65381;51.254;15.592;2023-11-19T01:35:48;3.83;;;0.55;;
76536;SDS011;65381;51.254;15.592;2023-11-19T01:38:17;3.97;;;0.50;;
76536;SDS011;65381;51.254;15.592;2023-11-19T01:40:48;3.72;;;0.50;;
76536;SDS011;65381;51.254;15.592;2023-11-19T01:43:38;2.72;;;0.40;;
76536;SDS011;65381;51.254;15.592;2023-11-19T01:46:09;3.78;;;0.43;;
76536;SDS011;65381;51.254;15.592;2023-11-19T01:48:45;1.58;;;0.20;;
76536;SDS011;65381;51.254;15.592;2023-11-19T01:51:13;4.60;;;0.77;;
76536;SDS011;65381;51.254;15.592;2023-11-19T01:53:43;0.90;;;0.13;;
76536;SDS011;65381;51.254;15.592;2023-11-19T01:56:12;3.70;;;0.40;;
76536;SDS011;65381;51.254;15.592;2023-11-19T01:58:45;3.58;;;0.55;;
76536;SDS011;65381;51.254;15.592;2023-11-19T02:01:16;3.83;;;0.55;;
76536;SDS011;65381;51.254;15.592;2023-11-19T02:03:44;1.65;;;0.20;;
76536;SDS011;65381;51.254;15.592;2023-11-19T02:06:14;2.17;;;0.32;;
76536;SDS011;65381;51.254;15.592;2023-11-19T02:08:43;2.60;;;0.40;;
76536;SDS011;65381;51.254;15.592;2023-11-19T02:11:11;2.35;;;0.32;;
76536;SDS011;65381;51.254;15.592;2023-11-19T02:13:39;4.43;;;0.65;;
76536;SDS011;65381;51.254;15.592;2023-11-19T02:16:08;5.20;;;0.60;;
76536;SDS011;65381;51.254;15.592;2023-11-19T02:18:39;4.60;;;0.60;;
76536;SDS011;65381;51.254;15.592;2023-11-19T02:21:07;3.70;;;0.50;;
76536;SDS011;65381;51.254;15.592;2023-11-19T02:23:35;2.35;;;0.30;;
76536;SDS011;65381;51.254;15.592;2023-11-19T02:26:05;3.17;;;0.47;;
76536;SDS011;65381;51.254;15.592;2023-11-19T02:29:02;4.03;;;0.60;;
76536;SDS011;65381;51.254;15.592;2023-11-19T02:31:34;2.83;;;0.40;;
76536;SDS011;65381;51.254;15.592;2023-11-19T02:34:02;3.15;;;0.40;;
76536;SDS011;65381;51.254;15.592;2023-11-19T02:36:31;3.72;;;0.52;;
76536;SDS011;65381;51.254;15.592;2023-11-19T02:39:01;6.13;;;0.80;;
76536;SDS011;65381;51.254;15.592;2023-11-19T02:41:29;2.33;;;0.30;;
76536;SDS011;65381;51.254;15.592;2023-11-19T02:43:57;2.67;;;0.30;;
76536;SDS011;65381;51.254;15.592;2023-11-19T02:46:25;2.53;;;0.35;;
76536;SDS011;65381;51.254;15.592;2023-11-19T02:48:54;4.50;;;0.65;;
76536;SDS011;65381;51.254;15.592;2023-11-19T02:51:23;3.90;;;0.50;;
76536;SDS011;65381;51.254;15.592;2023-11-19T02:53:53;4.97;;;0.50;;
76536;SDS011;65381;51.254;15.592;2023-11-19T02:56:20;3.58;;;0.45;;
76536;SDS011;65381;51.254;15.592;2023-11-19T02:58:56;1.08;;;0.10;;
76536;SDS011;65381;51.254;15.592;2023-11-19T03:01:24;4.97;;;0.68;;
76536;SDS011;65381;51.254;15.592;2023-11-19T03:04:01;4.57;;;0.52;;
76536;SDS011;65381;51.254;15.592;2023-11-19T03:06:31;5.25;;;0.70;;
76536;SDS011;65381;51.254;15.592;2023-11-19T03:08:59;3.08;;;0.40;;
76536;SDS011;65381;51.254;15.592;2023-11-19T03:11:33;4.20;;;0.52;;
76536;SDS011;65381;51.254;15.592;2023-11-19T03:14:01;4.13;;;0.55;;
76536;SDS011;65381;51.254;15.592;2023-11-19T03:16:30;2.55;;;0.40;;
76536;SDS011;65381;51.254;15.592;2023-11-19T03:19:00;3.50;;;0.40;;
76536;SDS011;65381;51.254;15.592;2023-11-19T03:21:28;2.40;;;0.35;;
76536;SDS011;65381;51.254;15.592;2023-11-19T03:23:57;4.35;;;0.50;;
76536;SDS011;65381;51.254;15.592;2023-11-19T03:26:28;2.35;;;0.30;;
76536;SDS011;65381;51.254;15.592;2023-11-19T03:28:57;3.80;;;0.50;;
76536;SDS011;65381;51.254;15.592;2023-11-19T03:31:24;3.30;;;0.40;;
76536;SDS011;65381;51.254;15.592;2023-11-19T03:33:53;3.17;;;0.43;;
76536;SDS011;65381;51.254;15.592;2023-11-19T03:36:25;2.97;;;0.40;;
76536;SDS011;65381;51.254;15.592;2023-11-19T03:39:00;2.03;;;0.30;;
76536;SDS011;65381;51.254;15.592;2023-11-19T03:41:28;3.15;;;0.40;;
76536;SDS011;65381;51.254;15.592;2023-11-19T03:44:08;1.40;;;0.22;;
76536;SDS011;65381;51.254;15.592;2023-11-19T03:46:37;4.00;;;0.50;;
76536;SDS011;65381;51.254;15.592;2023-11-19T03:49:06;2.50;;;0.38;;
76536;SDS011;65381;51.254;15.592;2023-11-19T03:51:34;4.10;;;0.47;;
76536;SDS011;65381;51.254;15.592;2023-11-19T03:54:02;1.95;;;0.25;;
76536;SDS011;65381;51.254;15.592;2023-11-19T03:56:30;6.22;;;0.88;;
76536;SDS011;65381;51.254;15.592;2023-11-19T03:58:59;4.80;;;0.65;;
76536;SDS011;65381;51.254;15.592;2023-11-19T04:01:27;3.78;;;0.47;;
76536;SDS011;65381;51.254;15.592;2023-11-19T04:03:56;2.58;;;0.30;;
76536;SDS011;65381;51.254;15.592;2023-11-19T04:06:23;2.85;;;0.38;;
76536;SDS011;65381;51.254;15.592;2023-11-19T04:08:52;3.63;;;0.50;;
76536;SDS011;65381;51.254;15.592;2023-11-19T04:11:19;4.00;;;0.57;;
76536;SDS011;65381;51.254;15.592;2023-11-19T04:13:47;3.15;;;0.35;;
76536;SDS011;65381;51.254;15.592;2023-11-19T04:16:15;3.83;;;0.40;;
76536;SDS011;65381;51.254;15.592;2023-11-19T04:18:44;3.63;;;0.40;;
76536;SDS011;65381;51.254;15.592;2023-11-19T04:21:11;3.60;;;0.50;;
76536;SDS011;65381;51.254;15.592;2023-11-19T04:23:40;4.05;;;0.55;;
76536;SDS011;65381;51.254;15.592;2023-11-19T04:26:08;1.67;;;0.17;;
76536;SDS011;65381;51.254;15.592;2023-11-19T04:28:37;3.38;;;0.40;;
76536;SDS011;65381;51.254;15.592;2023-11-19T04:31:05;3.40;;;0.52;;
76536;SDS011;65381;51.254;15.592;2023-11-19T04:33:34;3.53;;;0.47;;
76536;SDS011;65381;51.254;15.592;2023-11-19T04:36:02;3.30;;;0.40;;
76536;SDS011;65381;51.254;15.592;2023-11-19T04:38:30;3.47;;;0.50;;
76536;SDS011;65381;51.254;15.592;2023-11-19T04:40:58;3.45;;;0.47;;
76536;SDS011;65381;51.254;15.592;2023-11-19T04:43:27;2.28;;;0.32;;
76536;SDS011;65381;51.254;15.592;2023-11-19T04:45:56;2.70;;;0.40;;
76536;SDS011;65381;51.254;15.592;2023-11-19T04:48:25;5.63;;;0.68;;
76536;SDS011;65381;51.254;15.592;2023-11-19T04:50:53;3.85;;;0.47;;
76536;SDS011;65381;51.254;15.592;2023-11-19T04:53:21;4.90;;;0.70;;
76536;SDS011;65381;51.254;15.592;2023-11-19T04:55:49;2.72;;;0.30;;
76536;SDS011;65381;51.254;15.592;2023-11-19T04:58:17;6.78;;;0.90;;
76536;SDS011;65381;51.254;15.592;2023-11-19T05:00:46;2.83;;;0.45;;
76536;SDS011;65381;51.254;15.592;2023-11-19T05:03:14;2.63;;;0.30;;
76536;SDS011;65381;51.254;15.592;2023-11-19T05:05:42;2.85;;;0.40;;
76536;SDS011;65381;51.254;15.592;2023-11-19T05:08:10;3.15;;;0.47;;
76536;SDS011;65381;51.254;15.592;2023-11-19T05:10:38;1.88;;;0.30;;
76536;SDS011;65381;51.254;15.592;2023-11-19T05:13:08;3.50;;;0.50;;
76536;SDS011;65381;51.254;15.592;2023-11-19T05:15:36;3.03;;;0.40;;
76536;SDS011;65381;51.254;15.592;2023-11-19T05:18:05;3.60;;;0.47;;
76536;SDS011;65381;51.254;15.592;2023-11-19T05:20:33;2.80;;;0.30;;
76536;SDS011;65381;51.254;15.592;2023-11-19T05:23:02;2.70;;;0.45;;
76536;SDS011;65381;51.254;15.592;2023-11-19T05:25:30;2.70;;;0.32;;
76536;SDS011;65381;51.254;15.592;2023-11-19T05:27:58;4.03;;;0.55;;
76536;SDS011;65381;51.254;15.592;2023-11-19T05:30:26;1.90;;;0.28;;
76536;SDS011;65381;51.254;15.592;2023-11-19T05:32:54;2.42;;;0.38;;
76536;SDS011;65381;51.254;15.592;2023-11-19T05:35:23;4.25;;;0.57;;
76536;SDS011;65381;51.254;15.592;2023-11-19T05:37:51;1.80;;;0.30;;
76536;SDS011;65381;51.254;15.592;2023-11-19T05:40:19;2.40;;;0.30;;
76536;SDS011;65381;51.254;15.592;2023-11-19T05:42:47;5.15;;;0.60;;
76536;SDS011;65381;51.254;15.592;2023-11-19T05:45:15;3.45;;;0.43;;
76536;SDS011;65381;51.254;15.592;2023-11-19T05:47:44;2.45;;;0.40;;
76536;SDS011;65381;51.254;15.592;2023-11-19T05:50:12;2.13;;;0.30;;
76536;SDS011;65381;51.254;15.592;2023-11-19T05:52:42;3.72;;;0.57;;
76536;SDS011;65381;51.254;15.592;2023-11-19T05:55:11;2.83;;;0.38;;
76536;SDS011;65381;51.254;15.592;2023-11-19T05:57:40;2.28;;;0.20;;
76536;SDS011;65381;51.254;15.592;2023-11-19T06:00:11;2.72;;;0.38;;
76536;SDS011;65381;51.254;15.592;2023-11-19T06:02:43;4.32;;;0.57;;
76536;SDS011;65381;51.254;15.592;2023-11-19T06:05:12;1.60;;;0.20;;
76536;SDS011;65381;51.254;15.592;2023-11-19T06:07:41;1.77;;;0.40;;
76536;SDS011;65381;51.254;15.592;2023-11-19T06:10:09;1.67;;;0.30;;
76536;SDS011;65381;51.254;15.592;2023-11-19T06:12:38;1.17;;;0.13;;
76536;SDS011;65381;51.254;15.592;2023-11-19T06:15:08;0.80;;;0.13;;
76536;SDS011;65381;51.254;15.592;2023-11-19T06:17:37;0.20;;;0.10;;
76536;SDS011;65381;51.254;15.592;2023-11-19T06:20:06;0.30;;;0.20;;
76536;SDS011;65381;51.254;15.592;2023-11-19T06:22:37;0.00;;;0.00;;
76536;SDS011;65381;51.254;15.592;2023-11-19T06:25:11;0.00;;;0.00;;
76536;SDS011;65381;51.254;15.592;2023-11-19T06:27:42;0.00;;;0.00;;
76536;SDS011;65381;51.254;15.592;2023-11-19T06:30:10;0.43;;;0.28;;
76536;SDS011;65381;51.254;15.592;2023-11-19T06:32:39;0.03;;;0.03;;
76536;SDS011;65381;51.254;15.592;2023-11-19T06:35:07;0.30;;;0.13;;
76536;SDS011;65381;51.254;15.592;2023-11-19T06:37:38;0.10;;;0.10;;
76536;SDS011;65381;51.254;15.592;2023-11-19T06:40:07;0.00;;;0.00;;
76536;SDS011;65381;51.254;15.592;2023-11-19T06:42:37;0.00;;;0.00;;
76536;SDS011;65381;51.254;15.592;2023-11-19T06:45:05;0.00;;;0.00;;
76536;SDS011;65381;51.254;15.592;2023-11-19T06:47:35;0.00;;;0.00;;
76536;SDS011;65381;51.254;15.592;2023-11-19T06:50:03;0.00;;;0.00;;
76536;SDS011;65381;51.254;15.592;2023-11-19T06:52:33;0.00;;;0.00;;
76536;SDS011;65381;51.254;15.592;2023-11-19T06:55:02;0.00;;;0.00;;
76536;SDS011;65381;51.254;15.592;2023-11-19T06:57:33;0.10;;;0.10;;
76536;SDS011;65381;51.254;15.592;2023-11-19T07:00:01;0.00;;;0.00;;
76536;SDS011;65381;51.254;15.592;2023-11-19T07:02:34;0.00;;;0.00;;
76536;SDS011;65381;51.254;15.592;2023-11-19T07:05:02;0.00;;;0.00;;
76536;SDS011;65381;51.254;15.592;2023-11-19T07:07:33;0.00;;;0.00;;
76536;SDS011;65381;51.254;15.592;2023-11-19T07:10:03;0.00;;;0.00;;
76536;SDS011;65381;51.254;15.592;2023-11-19T07:12:32;0.05;;;0.05;;
76536;SDS011;65381;51.254;15.592;2023-11-19T07:15:01;0.00;;;0.00;;
76536;SDS011;65381;51.254;15.592;2023-11-19T07:17:30;0.10;;;0.10;;
76536;SDS011;65381;51.254;15.592;2023-11-19T07:19:59;0.00;;;0.00;;
76536;SDS011;65381;51.254;15.592;2023-11-19T07:22:27;0.08;;;0.08;;
76536;SDS011;65381;51.254;15.592;2023-11-19T07:24:57;0.03;;;0.03;;
76536;SDS011;65381;51.254;15.592;2023-11-19T07:27:27;0.00;;;0.00;;
76536;SDS011;65381;51.254;15.592;2023-11-19T07:29:56;0.00;;;0.00;;
76536;SDS011;65381;51.254;15.592;2023-11-19T07:32:25;0.00;;;0.00;;
76536;SDS011;65381;51.254;15.592;2023-11-19T07:34:53;0.00;;;0.00;;
76536;SDS011;65381;51.254;15.592;2023-11-19T07:37:23;0.00;;;0.00;;
76536;SDS011;65381;51.254;15.592;2023-11-19T07:39:52;0.00;;;0.00;;
76536;SDS011;65381;51.254;15.592;2023-11-19T07:42:21;0.00;;;0.00;;
76536;SDS011;65381;51.254;15.592;2023-11-19T07:44:50;0.00;;;0.00;;
76536;SDS011;65381;51.254;15.592;2023-11-19T07:47:18;0.00;;;0.00;;
76536;SDS011;65381;51.254;15.592;2023-11-19T07:49:46;0.00;;;0.00;;
76536;SDS011;65381;51.254;15.592;2023-11-19T07:52:15;0.00;;;0.00;;
76536;SDS011;65381;51.254;15.592;2023-11-19T07:54:47;0.00;;;0.00;;
76536;SDS011;65381;51.254;15.592;2023-11-19T07:57:18;0.00;;;0.00;;
76536;SDS011;65381;51.254;15.592;2023-11-19T07:59:46;0.00;;;0.00;;
76536;SDS011;65381;51.254;15.592;2023-11-19T08:02:15;0.10;;;0.10;;
76536;SDS011;65381;51.254;15.592;2023-11-19T08:04:43;0.00;;;0.00;;
76536;SDS011;65381;51.254;15.592;2023-11-19T08:07:13;0.10;;;0.10;;
76536;SDS011;65381;51.254;15.592;2023-11-19T08:09:42;0.00;;;0.00;;
76536;SDS011;65381;51.254;15.592;2023-11-19T08:12:10;0.00;;;0.00;;
76536;SDS011;65381;51.254;15.592;2023-11-19T08:14:40;0.00;;;0.00;;
76536;SDS011;65381;51.254;15.592;2023-11-19T08:17:08;0.00;;;0.00;;
76536;SDS011;65381;51.254;15.592;2023-11-19T08:19:37;0.00;;;0.00;;
76536;SDS011;65381;51.254;15.592;2023-11-19T08:22:05;0.00;;;0.00;;
76536;SDS011;65381;51.254;15.592;2023-11-19T08:24:35;0.00;;;0.00;;
76536;SDS011;65381;51.254;15.592;2023-11-19T08:27:04;0.00;;;0.00;;
76536;SDS011;65381;51.254;15.592;2023-11-19T08:29:34;0.00;;;0.00;;
76536;SDS011;65381;51.254;15.592;2023-11-19T08:32:03;0.00;;;0.00;;
76536;SDS011;65381;51.254;15.592;2023-11-19T08:34:33;0.00;;;0.00;;
76536;SDS011;65381;51.254;15.592;2023-11-19T08:37:01;0.00;;;0.00;;
76536;SDS011;65381;51.254;15.592;2023-11-19T08:39:29;0.00;;;0.00;;
76536;SDS011;65381;51.254;15.592;2023-11-19T08:41:58;0.00;;;0.00;;
76536;SDS011;65381;51.254;15.592;2023-11-19T08:44:26;0.00;;;0.00;;
76536;SDS011;65381;51.254;15.592;2023-11-19T08:46:55;0.00;;;0.00;;
76536;SDS011;65381;51.254;15.592;2023-11-19T08:49:23;0.00;;;0.00;;
76536;SDS011;65381;51.254;15.592;2023-11-19T08:51:51;0.00;;;0.00;;
76536;SDS011;65381;51.254;15.592;2023-11-19T08:54:19;0.05;;;0.05;;
76536;SDS011;65381;51.254;15.592;2023-11-19T08:56:48;0.00;;;0.00;;
76536;SDS011;65381;51.254;15.592;2023-11-19T08:59:18;0.00;;;0.00;;
76536;SDS011;65381;51.254;15.592;2023-11-19T09:01:46;0.00;;;0.00;;
76536;SDS011;65381;51.254;15.592;2023-11-19T09:04:15;0.00;;;0.00;;
76536;SDS011;65381;51.254;15.592;2023-11-19T09:06:47;0.00;;;0.00;;
76536;SDS011;65381;51.254;15.592;2023-11-19T09:09:15;0.00;;;0.00;;
76536;SDS011;65381;51.254;15.592;2023-11-19T09:11:44;0.00;;;0.00;;
76536;SDS011;65381;51.254;15.592;2023-11-19T09:14:12;0.00;;;0.00;;
76536;SDS011;65381;51.254;15.592;2023-11-19T09:16:41;0.00;;;0.00;;
76536;SDS011;65381;51.254;15.592;2023-11-19T09:19:09;0.00;;;0.00;;
76536;SDS011;65381;51.254;15.592;2023-11-19T09:21:37;0.00;;;0.00;;
76536;SDS011;65381;51.254;15.592;2023-11-19T09:24:06;0.00;;;0.00;;
76536;SDS011;65381;51.254;15.592;2023-11-19T09:26:35;0.00;;;0.00;;
76536;SDS011;65381;51.254;15.592;2023-11-19T09:29:03;0.00;;;0.00;;
76536;SDS011;65381;51.254;15.592;2023-11-19T09:31:32;0.10;;;0.10;;
76536;SDS011;65381;51.254;15.592;2023-11-19T09:34:00;0.00;;;0.00;;
76536;SDS011;65381;51.254;15.592;2023-11-19T09:36:29;0.00;;;0.00;;
76536;SDS011;65381;51.254;15.592;2023-11-19T09:38:57;0.00;;;0.00;;
76536;SDS011;65381;51.254;15.592;2023-11-19T09:41:29;0.00;;;0.00;;
76536;SDS011;65381;51.254;15.592;2023-11-19T09:43:58;0.00;;;0.00;;
76536;SDS011;65381;51.254;15.592;2023-11-19T09:46:27;0.08;;;0.08;;
76536;SDS011;65381;51.254;15.592;2023-11-19T09:48:57;0.00;;;0.00;;
76536;SDS011;65381;51.254;15.592;2023-11-19T09:51:27;0.00;;;0.00;;
76536;SDS011;65381;51.254;15.592;2023-11-19T09:53:55;0.00;;;0.00;;
76536;SDS011;65381;51.254;15.592;2023-11-19T09:56:25;0.10;;;0.10;;
76536;SDS011;65381;51.254;15.592;2023-11-19T09:58:57;0.03;;;0.03;;
76536;SDS011;65381;51.254;15.592;2023-11-19T10:01:29;0.00;;;0.00;;
76536;SDS011;65381;51.254;15.592;2023-11-19T10:03:59;0.00;;;0.00;;
76536;SDS011;65381;51.254;15.592;2023-11-19T10:06:30;0.00;;;0.00;;
76536;SDS011;65381;51.254;15.592;2023-11-19T10:23:52;0.10;;;0.10;;
76536;SDS011;65381;51.254;15.592;2023-11-19T10:26:22;0.00;;;0.00;;
76536;SDS011;65381;51.254;15.592;2023-11-19T10:28:50;0.00;;;0.00;;
76536;SDS011;65381;51.254;15.592;2023-11-19T10:31:19;0.00;;;0.00;;
76536;SDS011;65381;51.254;15.592;2023-11-19T10:33:54;0.00;;;0.00;;
76536;SDS011;65381;51.254;15.592;2023-11-19T10:36:22;0.00;;;0.00;;
76536;SDS011;65381;51.254;15.592;2023-11-19T10:39:05;0.00;;;0.00;;
76536;SDS011;65381;51.254;15.592;2023-11-19T10:41:33;0.00;;;0.00;;
76536;SDS011;65381;51.254;15.592;2023-11-19T10:44:02;0.00;;;0.00;;
76536;SDS011;65381;51.254;15.592;2023-11-19T10:46:40;0.35;;;0.10;;
76536;SDS011;65381;51.254;15.592;2023-11-19T10:49:09;0.10;;;0.10;;
76536;SDS011;65381;51.254;15.592;2023-11-19T10:51:40;0.30;;;0.30;;
76536;SDS011;65381;51.254;15.592;2023-11-19T10:54:13;0.10;;;0.10;;
76536;SDS011;65381;51.254;15.592;2023-11-19T10:56:45;1.35;;;0.15;;
76536;SDS011;65381;51.254;15.592;2023-11-19T10:59:21;0.10;;;0.10;;
76536;SDS011;65381;51.254;15.592;2023-11-19T11:01:54;0.17;;;0.17;;
76536;SDS011;65381;51.254;15.592;2023-11-19T11:04:24;0.00;;;0.00;;
76536;SDS011;65381;51.254;15.592;2023-11-19T11:06:55;0.85;;;0.85;;
76536;SDS011;65381;51.254;15.592;2023-11-19T11:09:26;0.00;;;0.00;;
76536;SDS011;65381;51.254;15.592;2023-11-19T11:11:55;0.03;;;0.03;;
76536;SDS011;65381;51.254;15.592;2023-11-19T11:14:25;0.52;;;0.28;;
76536;SDS011;65381;51.254;15.592;2023-11-19T11:16:54;0.00;;;0.00;;
76536;SDS011;65381;51.254;15.592;2023-11-19T11:19:26;0.17;;;0.17;;
76536;SDS011;65381;51.254;15.592;2023-11-19T11:21:54;0.20;;;0.20;;
76536;SDS011;65381;51.254;15.592;2023-11-19T11:30:16;0.40;;;0.17;;
76536;SDS011;65381;51.254;15.592;2023-11-19T11:32:42;0.00;;;0.00;;
76536;SDS011;65381;51.254;15.592;2023-11-19T11:38:22;0.20;;;0.20;;
76536;SDS011;65381;51.254;15.592;2023-11-19T11:43:51;0.00;;;0.00;;
76536;SDS011;65381;51.254;15.592;2023-11-19T11:49:04;0.00;;;0.00;;
76536;SDS011;65381;51.254;15.592;2023-11-19T11:57:02;0.00;;;0.00;;
76536;SDS011;65381;51.254;15.592;2023-11-19T11:59:42;0.20;;;0.20;;
76536;SDS011;65381;51.254;15.592;2023-11-19T12:02:22;0.00;;;0.00;;
76536;SDS011;65381;51.254;15.592;2023-11-19T12:04:51;0.10;;;0.10;;
76536;SDS011;65381;51.254;15.592;2023-11-19T12:07:21;0.00;;;0.00;;
76536;SDS011;65381;51.254;15.592;2023-11-19T12:09:54;0.28;;;0.28;;
76536;SDS011;65381;51.254;15.592;2023-11-19T12:12:36;0.10;;;0.03;;
76536;SDS011;65381;51.254;15.592;2023-11-19T12:15:10;0.10;;;0.10;;
76536;SDS011;65381;51.254;15.592;2023-11-19T12:17:42;0.00;;;0.00;;
76536;SDS011;65381;51.254;15.592;2023-11-19T12:20:15;0.10;;;0.10;;
76536;SDS011;65381;51.254;15.592;2023-11-19T12:23:02;0.10;;;0.05;;
76536;SDS011;65381;51.254;15.592;2023-11-19T12:25:33;0.00;;;0.00;;
76536;SDS011;65381;51.254;15.592;2023-11-19T12:28:02;0.00;;;0.00;;
76536;SDS011;65381;51.254;15.592;2023-11-19T12:30:32;0.03;;;0.03;;
76536;SDS011;65381;51.254;15.592;2023-11-19T12:33:07;0.13;;;0.13;;
76536;SDS011;65381;51.254;15.592;2023-11-19T12:35:39;0.13;;;0.13;;
76536;SDS011;65381;51.254;15.592;2023-11-19T12:38:18;0.10;;;0.10;;
76536;SDS011;65381;51.254;15.592;2023-11-19T12:41:04;0.50;;;0.50;;
76536;SDS011;65381;51.254;15.592;2023-11-19T12:43:34;0.22;;;0.22;;
76536;SDS011;65381;51.254;15.592;2023-11-19T12:46:18;0.10;;;0.10;;
76536;SDS011;65381;51.254;15.592;2023-11-19T12:48:51;0.28;;;0.28;;
76536;SDS011;65381;51.254;15.592;2023-11-19T12:51:19;0.00;;;0.00;;
76536;SDS011;65381;51.254;15.592;2023-11-19T12:53:51;0.20;;;0.20;;
76536;SDS011;65381;51.254;15.592;2023-11-19T12:56:23;0.20;;;0.20;;
76536;SDS011;65381;51.254;15.592;2023-11-19T12:58:52;1.00;;;0.68;;
76536;SDS011;65381;51.254;15.592;2023-11-19T13:01:20;0.20;;;0.20;;
76536;SDS011;65381;51.254;15.592;2023-11-19T13:03:49;0.08;;;0.08;;
76536;SDS011;65381;51.254;15.592;2023-11-19T13:06:19;0.08;;;0.08;;
76536;SDS011;65381;51.254;15.592;2023-11-19T13:08:50;0.10;;;0.10;;
76536;SDS011;65381;51.254;15.592;2023-11-19T13:11:32;0.00;;;0.00;;
76536;SDS011;65381;51.254;15.592;2023-11-19T13:14:02;0.10;;;0.10;;
76536;SDS011;65381;51.254;15.592;2023-11-19T13:16:32;0.00;;;0.00;;
76536;SDS011;65381;51.254;15.592;2023-11-19T13:19:01;0.00;;;0.00;;
76536;SDS011;65381;51.254;15.592;2023-11-19T13:21:30;0.00;;;0.00;;
76536;SDS011;65381;51.254;15.592;2023-11-19T13:23:59;0.08;;;0.08;;
76536;SDS011;65381;51.254;15.592;2023-11-19T13:26:28;0.00;;;0.00;;
76536;SDS011;65381;51.254;15.592;2023-11-19T13:28:57;0.10;;;0.10;;
76536;SDS011;65381;51.254;15.592;2023-11-19T13:31:26;0.00;;;0.00;;
76536;SDS011;65381;51.254;15.592;2023-11-19T13:33:55;0.20;;;0.20;;
76536;SDS011;65381;51.254;15.592;2023-11-19T13:36:24;0.00;;;0.00;;
76536;SDS011;65381;51.254;15.592;2023-11-19T13:38:54;0.00;;;0.00;;
76536;SDS011;65381;51.254;15.592;2023-11-19T13:41:27;0.00;;;0.00;;
76536;SDS011;65381;51.254;15.592;2023-11-19T13:43:55;0.00;;;0.00;;
76536;SDS011;65381;51.254;15.592;2023-11-19T13:46:26;0.00;;;0.00;;
76536;SDS011;65381;51.254;15.592;2023-11-19T13:48:54;0.00;;;0.00;;
76536;SDS011;65381;51.254;15.592;2023-11-19T13:51:22;0.43;;;0.13;;
76536;SDS011;65381;51.254;15.592;2023-11-19T13:53:51;0.03;;;0.03;;
76536;SDS011;65381;51.254;15.592;2023-11-19T13:56:19;0.00;;;0.00;;
76536;SDS011;65381;51.254;15.592;2023-11-19T13:58:49;0.00;;;0.00;;
76536;SDS011;65381;51.254;15.592;2023-11-19T14:01:17;0.00;;;0.00;;
76536;SDS011;65381;51.254;15.592;2023-11-19T14:03:46;0.00;;;0.00;;
76536;SDS011;65381;51.254;15.592;2023-11-19T14:06:14;0.00;;;0.00;;
76536;SDS011;65381;51.254;15.592;2023-11-19T14:08:43;0.30;;;0.30;;
76536;SDS011;65381;51.254;15.592;2023-11-19T14:11:11;0.00;;;0.00;;
76536;SDS011;65381;51.254;15.592;2023-11-19T14:13:41;0.00;;;0.00;;
76536;SDS011;65381;51.254;15.592;2023-11-19T14:16:09;0.20;;;0.20;;
76536;SDS011;65381;51.254;15.592;2023-11-19T14:18:38;0.10;;;0.10;;
76536;SDS011;65381;51.254;15.592;2023-11-19T14:21:06;0.00;;;0.00;;
76536;SDS011;65381;51.254;15.592;2023-11-19T14:23:35;0.10;;;0.10;;
76536;SDS011;65381;51.254;15.592;2023-11-19T14:26:03;0.00;;;0.00;;
76536;SDS011;65381;51.254;15.592;2023-11-19T14:28:32;0.45;;;0.20;;
76536;SDS011;65381;51.254;15.592;2023-11-19T14:31:00;0.00;;;0.00;;
76536;SDS011;65381;51.254;15.592;2023-11-19T14:33:28;0.05;;;0.05;;
76536;SDS011;65381;51.254;15.592;2023-11-19T14:35:57;0.00;;;0.00;;
76536;SDS011;65381;51.254;15.592;2023-11-19T14:38:25;0.10;;;0.10;;
76536;SDS011;65381;51.254;15.592;2023-11-19T14:40:53;0.00;;;0.00;;
76536;SDS011;65381;51.254;15.592;2023-11-19T14:43:22;0.00;;;0.00;;
76536;SDS011;65381;51.254;15.592;2023-11-19T14:45:51;0.00;;;0.00;;
76536;SDS011;65381;51.254;15.592;2023-11-19T14:48:23;0.00;;;0.00;;
76536;SDS011;65381;51.254;15.592;2023-11-19T14:50:51;0.65;;;0.65;;
76536;SDS011;65381;51.254;15.592;2023-11-19T14:53:21;0.10;;;0.10;;
76536;SDS011;65381;51.254;15.592;2023-11-19T14:55:49;0.00;;;0.00;;
76536;SDS011;65381;51.254;15.592;2023-11-19T14:58:18;0.00;;;0.00;;
76536;SDS011;65381;51.254;15.592;2023-11-19T15:00:46;0.13;;;0.13;;
76536;SDS011;65381;51.254;15.592;2023-11-19T15:03:15;0.00;;;0.00;;
76536;SDS011;65381;51.254;15.592;2023-11-19T15:05:46;0.00;;;0.00;;
76536;SDS011;65381;51.254;15.592;2023-11-19T15:08:16;0.00;;;0.00;;
76536;SDS011;65381;51.254;15.592;2023-11-19T15:10:44;0.00;;;0.00;;
76536;SDS011;65381;51.254;15.592;2023-11-19T15:13:14;0.00;;;0.00;;
76536;SDS011;65381;51.254;15.592;2023-11-19T15:15:43;0.00;;;0.00;;
76536;SDS011;65381;51.254;15.592;2023-11-19T15:18:11;0.10;;;0.10;;
76536;SDS011;65381;51.254;15.592;2023-11-19T15:20:40;0.00;;;0.00;;
76536;SDS011;65381;51.254;15.592;2023-11-19T15:23:10;0.00;;;0.00;;